sensor_id;sensor_type;location;lat;lon;timestamp;P1;durP1;ratioP1;P2;durP2;ratioP2
76495;SDS011;65329;52.544;4.662;2023-02-28T00:01:18;4.50;;;2.80;;
76495;SDS011;65329;52.544;4.662;2023-02-28T00:03:45;5.20;;;2.83;;
76495;SDS011;65329;52.544;4.662;2023-02-28T00:06:12;4.15;;;2.80;;
76495;SDS011;65329;52.544;4.662;2023-02-28T00:08:39;6.93;;;2.25;;
76495;SDS011;65329;52.544;4.662;2023-02-28T00:11:08;7.95;;;3.05;;
76495;SDS011;65329;52.544;4.662;2023-02-28T00:13:39;4.80;;;2.60;;
76495;SDS011;65329;52.544;4.662;2023-02-28T00:16:13;6.22;;;2.70;;
76495;SDS011;65329;52.544;4.662;2023-02-28T00:18:42;5.82;;;2.53;;
76495;SDS011;65329;52.544;4.662;2023-02-28T00:21:09;4.80;;;2.80;;
76495;SDS011;65329;52.544;4.662;2023-02-28T00:23:36;5.10;;;2.40;;
76495;SDS011;65329;52.544;4.662;2023-02-28T00:26:03;5.30;;;2.85;;
76495;SDS011;65329;52.544;4.662;2023-02-28T00:28:30;4.28;;;2.20;;
76495;SDS011;65329;52.544;4.662;2023-02-28T00:30:58;4.70;;;2.67;;
76495;SDS011;65329;52.544;4.662;2023-02-28T00:33:28;5.95;;;2.30;;
76495;SDS011;65329;52.544;4.662;2023-02-28T00:36:02;3.95;;;2.45;;
76495;SDS011;65329;52.544;4.662;2023-02-28T00:38:31;5.82;;;2.38;;
76495;SDS011;65329;52.544;4.662;2023-02-28T00:40:59;9.02;;;2.75;;
76495;SDS011;65329;52.544;4.662;2023-02-28T00:43:31;7.25;;;2.70;;
76495;SDS011;65329;52.544;4.662;2023-02-28T00:46:02;4.93;;;2.67;;
76495;SDS011;65329;52.544;4.662;2023-02-28T00:48:29;7.82;;;2.40;;
76495;SDS011;65329;52.544;4.662;2023-02-28T00:50:57;5.05;;;2.92;;
76495;SDS011;65329;52.544;4.662;2023-02-28T00:53:24;3.53;;;2.10;;
76495;SDS011;65329;52.544;4.662;2023-02-28T00:55:51;4.18;;;2.30;;
76495;SDS011;65329;52.544;4.662;2023-02-28T00:58:18;6.70;;;2.20;;
76495;SDS011;65329;52.544;4.662;2023-02-28T01:00:45;5.18;;;2.22;;
76495;SDS011;65329;52.544;4.662;2023-02-28T01:03:16;5.82;;;2.60;;
76495;SDS011;65329;52.544;4.662;2023-02-28T01:05:44;8.18;;;2.55;;
76495;SDS011;65329;52.544;4.662;2023-02-28T01:08:12;4.90;;;2.58;;
76495;SDS011;65329;52.544;4.662;2023-02-28T01:10:41;7.28;;;3.00;;
76495;SDS011;65329;52.544;4.662;2023-02-28T01:13:08;5.15;;;3.58;;
76495;SDS011;65329;52.544;4.662;2023-02-28T01:15:36;7.57;;;2.53;;
76495;SDS011;65329;52.544;4.662;2023-02-28T01:18:04;3.90;;;2.42;;
76495;SDS011;65329;52.544;4.662;2023-02-28T01:20:30;5.82;;;2.05;;
76495;SDS011;65329;52.544;4.662;2023-02-28T01:22:57;6.13;;;2.40;;
76495;SDS011;65329;52.544;4.662;2023-02-28T01:25:24;3.10;;;2.10;;
76495;SDS011;65329;52.544;4.662;2023-02-28T01:27:51;7.65;;;2.63;;
76495;SDS011;65329;52.544;4.662;2023-02-28T01:30:18;9.00;;;2.75;;
76495;SDS011;65329;52.544;4.662;2023-02-28T01:32:46;6.00;;;2.97;;
76495;SDS011;65329;52.544;4.662;2023-02-28T01:35:13;7.63;;;3.20;;
76495;SDS011;65329;52.544;4.662;2023-02-28T01:37:40;5.82;;;2.55;;
76495;SDS011;65329;52.544;4.662;2023-02-28T01:40:07;4.97;;;2.15;;
76495;SDS011;65329;52.544;4.662;2023-02-28T01:42:34;4.20;;;2.50;;
76495;SDS011;65329;52.544;4.662;2023-02-28T01:47:35;5.10;;;2.78;;
76495;SDS011;65329;52.544;4.662;2023-02-28T01:50:07;4.35;;;2.67;;
76495;SDS011;65329;52.544;4.662;2023-02-28T01:52:39;7.35;;;2.38;;
76495;SDS011;65329;52.544;4.662;2023-02-28T01:55:07;6.90;;;2.42;;
76495;SDS011;65329;52.544;4.662;2023-02-28T01:57:41;5.97;;;2.65;;
76495;SDS011;65329;52.544;4.662;2023-02-28T02:00:15;4.95;;;2.60;;
76495;SDS011;65329;52.544;4.662;2023-02-28T02:02:48;4.28;;;2.67;;
76495;SDS011;65329;52.544;4.662;2023-02-28T02:05:24;6.65;;;2.88;;
76495;SDS011;65329;52.544;4.662;2023-02-28T02:07:54;4.15;;;2.42;;
76495;SDS011;65329;52.544;4.662;2023-02-28T02:18:46;5.40;;;2.30;;
76495;SDS011;65329;52.544;4.662;2023-02-28T02:38:47;5.15;;;1.80;;
76495;SDS011;65329;52.544;4.662;2023-02-28T02:44:07;5.72;;;2.15;;
76495;SDS011;65329;52.544;4.662;2023-02-28T02:46:42;6.90;;;2.00;;
76495;SDS011;65329;52.544;4.662;2023-02-28T02:52:11;3.20;;;1.80;;
76495;SDS011;65329;52.544;4.662;2023-02-28T02:54:41;4.70;;;1.98;;
76495;SDS011;65329;52.544;4.662;2023-02-28T02:57:21;4.43;;;2.00;;
76495;SDS011;65329;52.544;4.662;2023-02-28T02:59:52;5.35;;;2.13;;
76495;SDS011;65329;52.544;4.662;2023-02-28T03:02:21;3.90;;;2.17;;
76495;SDS011;65329;52.544;4.662;2023-02-28T03:04:53;4.63;;;2.10;;
76495;SDS011;65329;52.544;4.662;2023-02-28T03:07:28;2.28;;;1.63;;
76495;SDS011;65329;52.544;4.662;2023-02-28T03:09:56;7.00;;;1.90;;
76495;SDS011;65329;52.544;4.662;2023-02-28T03:12:27;4.18;;;1.95;;
76495;SDS011;65329;52.544;4.662;2023-02-28T03:18:15;5.40;;;2.22;;
76495;SDS011;65329;52.544;4.662;2023-02-28T03:26:31;4.15;;;2.05;;
76495;SDS011;65329;52.544;4.662;2023-02-28T03:29:37;2.83;;;1.67;;
76495;SDS011;65329;52.544;4.662;2023-02-28T03:32:11;5.45;;;2.00;;
76495;SDS011;65329;52.544;4.662;2023-02-28T03:34:50;4.05;;;1.90;;
76495;SDS011;65329;52.544;4.662;2023-02-28T03:37:23;7.90;;;2.20;;
76495;SDS011;65329;52.544;4.662;2023-02-28T03:39:55;8.10;;;1.90;;
76495;SDS011;65329;52.544;4.662;2023-02-28T03:42:29;4.07;;;1.50;;
76495;SDS011;65329;52.544;4.662;2023-02-28T03:45:19;5.32;;;1.85;;
76495;SDS011;65329;52.544;4.662;2023-02-28T03:47:53;3.08;;;1.92;;
76495;SDS011;65329;52.544;4.662;2023-02-28T03:53:03;6.55;;;2.10;;
76495;SDS011;65329;52.544;4.662;2023-02-28T03:55:37;4.35;;;2.05;;
76495;SDS011;65329;52.544;4.662;2023-02-28T03:58:16;6.90;;;1.98;;
76495;SDS011;65329;52.544;4.662;2023-02-28T04:01:14;3.25;;;1.95;;
76495;SDS011;65329;52.544;4.662;2023-02-28T04:03:56;2.58;;;1.83;;
76495;SDS011;65329;52.544;4.662;2023-02-28T04:06:23;4.43;;;2.03;;
76495;SDS011;65329;52.544;4.662;2023-02-28T04:08:51;4.30;;;2.15;;
76495;SDS011;65329;52.544;4.662;2023-02-28T04:11:20;4.30;;;2.15;;
76495;SDS011;65329;52.544;4.662;2023-02-28T04:13:49;4.05;;;2.00;;
76495;SDS011;65329;52.544;4.662;2023-02-28T04:16:17;3.47;;;2.05;;
76495;SDS011;65329;52.544;4.662;2023-02-28T04:18:59;6.40;;;2.10;;
76495;SDS011;65329;52.544;4.662;2023-02-28T04:21:30;3.22;;;1.85;;
76495;SDS011;65329;52.544;4.662;2023-02-28T04:24:00;5.90;;;1.63;;
76495;SDS011;65329;52.544;4.662;2023-02-28T04:26:32;6.10;;;1.95;;
76495;SDS011;65329;52.544;4.662;2023-02-28T04:31:28;4.65;;;1.67;;
76495;SDS011;65329;52.544;4.662;2023-02-28T04:33:56;2.88;;;1.65;;
76495;SDS011;65329;52.544;4.662;2023-02-28T04:36:23;5.72;;;2.15;;
76495;SDS011;65329;52.544;4.662;2023-02-28T04:38:50;7.60;;;2.20;;
76495;SDS011;65329;52.544;4.662;2023-02-28T04:41:18;5.32;;;2.15;;
76495;SDS011;65329;52.544;4.662;2023-02-28T04:43:45;8.00;;;1.98;;
76495;SDS011;65329;52.544;4.662;2023-02-28T04:46:14;6.13;;;1.92;;
76495;SDS011;65329;52.544;4.662;2023-02-28T04:48:41;4.90;;;2.10;;
76495;SDS011;65329;52.544;4.662;2023-02-28T04:51:12;3.28;;;1.83;;
76495;SDS011;65329;52.544;4.662;2023-02-28T04:53:40;7.25;;;2.33;;
76495;SDS011;65329;52.544;4.662;2023-02-28T04:56:10;5.75;;;1.98;;
76495;SDS011;65329;52.544;4.662;2023-02-28T04:58:40;4.07;;;2.15;;
76495;SDS011;65329;52.544;4.662;2023-02-28T05:01:21;6.28;;;1.75;;
76495;SDS011;65329;52.544;4.662;2023-02-28T05:03:48;3.95;;;1.70;;
76495;SDS011;65329;52.544;4.662;2023-02-28T05:06:16;5.65;;;2.13;;
76495;SDS011;65329;52.544;4.662;2023-02-28T05:08:44;5.63;;;1.73;;
76495;SDS011;65329;52.544;4.662;2023-02-28T05:11:13;9.45;;;2.28;;
76495;SDS011;65329;52.544;4.662;2023-02-28T05:13:49;4.55;;;1.98;;
76495;SDS011;65329;52.544;4.662;2023-02-28T05:16:18;7.78;;;2.15;;
76495;SDS011;65329;52.544;4.662;2023-02-28T05:18:46;6.55;;;2.03;;
76495;SDS011;65329;52.544;4.662;2023-02-28T05:24:02;4.82;;;2.40;;
76495;SDS011;65329;52.544;4.662;2023-02-28T05:26:31;3.50;;;1.70;;
76495;SDS011;65329;52.544;4.662;2023-02-28T05:29:01;3.63;;;1.70;;
76495;SDS011;65329;52.544;4.662;2023-02-28T05:31:28;4.68;;;2.08;;
76495;SDS011;65329;52.544;4.662;2023-02-28T05:33:56;4.10;;;1.75;;
76495;SDS011;65329;52.544;4.662;2023-02-28T05:36:23;5.80;;;2.75;;
76495;SDS011;65329;52.544;4.662;2023-02-28T05:38:51;5.47;;;2.50;;
76495;SDS011;65329;52.544;4.662;2023-02-28T05:41:18;5.70;;;2.50;;
76495;SDS011;65329;52.544;4.662;2023-02-28T05:43:47;6.60;;;1.98;;
76495;SDS011;65329;52.544;4.662;2023-02-28T05:46:14;6.43;;;2.15;;
76495;SDS011;65329;52.544;4.662;2023-02-28T05:48:42;5.47;;;2.17;;
76495;SDS011;65329;52.544;4.662;2023-02-28T05:51:12;5.38;;;2.38;;
76495;SDS011;65329;52.544;4.662;2023-02-28T05:53:39;2.90;;;1.90;;
76495;SDS011;65329;52.544;4.662;2023-02-28T05:56:06;4.32;;;2.00;;
76495;SDS011;65329;52.544;4.662;2023-02-28T05:58:33;5.22;;;2.55;;
76495;SDS011;65329;52.544;4.662;2023-02-28T06:01:19;3.08;;;1.88;;
76495;SDS011;65329;52.544;4.662;2023-02-28T06:03:49;8.35;;;2.45;;
76495;SDS011;65329;52.544;4.662;2023-02-28T06:06:19;5.72;;;2.50;;
76495;SDS011;65329;52.544;4.662;2023-02-28T06:08:46;4.60;;;2.17;;
76495;SDS011;65329;52.544;4.662;2023-02-28T06:11:13;4.25;;;2.45;;
76495;SDS011;65329;52.544;4.662;2023-02-28T06:13:40;4.05;;;2.00;;
76495;SDS011;65329;52.544;4.662;2023-02-28T06:16:08;4.22;;;2.25;;
76495;SDS011;65329;52.544;4.662;2023-02-28T06:18:36;3.40;;;2.17;;
76495;SDS011;65329;52.544;4.662;2023-02-28T06:21:04;4.93;;;2.13;;
76495;SDS011;65329;52.544;4.662;2023-02-28T06:23:31;3.92;;;2.58;;
76495;SDS011;65329;52.544;4.662;2023-02-28T06:25:57;3.45;;;1.90;;
76495;SDS011;65329;52.544;4.662;2023-02-28T06:28:25;6.20;;;2.30;;
76495;SDS011;65329;52.544;4.662;2023-02-28T06:30:52;5.85;;;2.63;;
76495;SDS011;65329;52.544;4.662;2023-02-28T06:33:19;3.65;;;1.98;;
76495;SDS011;65329;52.544;4.662;2023-02-28T06:35:47;5.47;;;2.63;;
76495;SDS011;65329;52.544;4.662;2023-02-28T06:38:16;6.28;;;2.65;;
76495;SDS011;65329;52.544;4.662;2023-02-28T06:40:44;5.63;;;2.75;;
76495;SDS011;65329;52.544;4.662;2023-02-28T06:43:18;9.32;;;3.45;;
76495;SDS011;65329;52.544;4.662;2023-02-28T06:45:45;5.05;;;3.63;;
76495;SDS011;65329;52.544;4.662;2023-02-28T06:48:13;7.70;;;3.97;;
76495;SDS011;65329;52.544;4.662;2023-02-28T06:50:40;7.00;;;3.40;;
76495;SDS011;65329;52.544;4.662;2023-02-28T06:53:07;10.88;;;4.38;;
76495;SDS011;65329;52.544;4.662;2023-02-28T06:55:34;11.07;;;5.28;;
76495;SDS011;65329;52.544;4.662;2023-02-28T06:58:01;8.80;;;4.65;;
76495;SDS011;65329;52.544;4.662;2023-02-28T07:00:28;9.00;;;4.75;;
76495;SDS011;65329;52.544;4.662;2023-02-28T07:02:54;11.32;;;5.20;;
76495;SDS011;65329;52.544;4.662;2023-02-28T07:05:22;10.38;;;5.18;;
76495;SDS011;65329;52.544;4.662;2023-02-28T07:07:49;10.05;;;5.18;;
76495;SDS011;65329;52.544;4.662;2023-02-28T07:10:16;10.90;;;5.35;;
76495;SDS011;65329;52.544;4.662;2023-02-28T07:12:45;9.52;;;5.35;;
76495;SDS011;65329;52.544;4.662;2023-02-28T07:15:12;11.77;;;5.63;;
76495;SDS011;65329;52.544;4.662;2023-02-28T07:17:39;9.82;;;4.70;;
76495;SDS011;65329;52.544;4.662;2023-02-28T07:20:06;11.38;;;5.72;;
76495;SDS011;65329;52.544;4.662;2023-02-28T07:22:33;10.85;;;5.57;;
76495;SDS011;65329;52.544;4.662;2023-02-28T07:25:00;8.75;;;4.43;;
76495;SDS011;65329;52.544;4.662;2023-02-28T07:27:27;13.25;;;6.05;;
76495;SDS011;65329;52.544;4.662;2023-02-28T07:29:54;8.82;;;5.30;;
76495;SDS011;65329;52.544;4.662;2023-02-28T07:32:21;10.13;;;5.47;;
76495;SDS011;65329;52.544;4.662;2023-02-28T07:34:49;10.35;;;5.90;;
76495;SDS011;65329;52.544;4.662;2023-02-28T07:37:15;9.27;;;4.40;;
76495;SDS011;65329;52.544;4.662;2023-02-28T07:39:43;9.48;;;5.88;;
76495;SDS011;65329;52.544;4.662;2023-02-28T07:42:10;13.10;;;5.75;;
76495;SDS011;65329;52.544;4.662;2023-02-28T07:44:38;11.73;;;6.05;;
76495;SDS011;65329;52.544;4.662;2023-02-28T07:47:07;12.00;;;6.88;;
76495;SDS011;65329;52.544;4.662;2023-02-28T07:49:38;13.55;;;5.18;;
76495;SDS011;65329;52.544;4.662;2023-02-28T07:52:05;10.90;;;6.00;;
76495;SDS011;65329;52.544;4.662;2023-02-28T07:54:33;9.10;;;5.07;;
76495;SDS011;65329;52.544;4.662;2023-02-28T07:57:00;11.88;;;6.50;;
76495;SDS011;65329;52.544;4.662;2023-02-28T07:59:27;9.27;;;5.80;;
76495;SDS011;65329;52.544;4.662;2023-02-28T08:01:57;12.85;;;6.97;;
76495;SDS011;65329;52.544;4.662;2023-02-28T08:04:25;14.27;;;6.78;;
76495;SDS011;65329;52.544;4.662;2023-02-28T08:06:53;14.98;;;8.23;;
76495;SDS011;65329;52.544;4.662;2023-02-28T08:09:20;14.50;;;7.95;;
76495;SDS011;65329;52.544;4.662;2023-02-28T08:11:47;14.15;;;8.07;;
76495;SDS011;65329;52.544;4.662;2023-02-28T08:14:14;14.85;;;8.63;;
76495;SDS011;65329;52.544;4.662;2023-02-28T08:16:41;15.70;;;8.25;;
76495;SDS011;65329;52.544;4.662;2023-02-28T08:19:09;13.50;;;7.45;;
76495;SDS011;65329;52.544;4.662;2023-02-28T08:21:37;12.13;;;6.50;;
76495;SDS011;65329;52.544;4.662;2023-02-28T08:24:04;8.48;;;4.93;;
76495;SDS011;65329;52.544;4.662;2023-02-28T08:26:31;12.07;;;6.50;;
76495;SDS011;65329;52.544;4.662;2023-02-28T08:28:59;7.05;;;5.25;;
76495;SDS011;65329;52.544;4.662;2023-02-28T08:31:27;6.25;;;3.88;;
76495;SDS011;65329;52.544;4.662;2023-02-28T08:33:54;7.38;;;5.05;;
76495;SDS011;65329;52.544;4.662;2023-02-28T08:36:25;6.97;;;4.90;;
76495;SDS011;65329;52.544;4.662;2023-02-28T08:38:56;9.88;;;6.13;;
76495;SDS011;65329;52.544;4.662;2023-02-28T08:41:23;9.75;;;6.03;;
76495;SDS011;65329;52.544;4.662;2023-02-28T08:43:50;12.98;;;8.20;;
76495;SDS011;65329;52.544;4.662;2023-02-28T08:46:17;9.90;;;6.95;;
76495;SDS011;65329;52.544;4.662;2023-02-28T08:48:46;9.90;;;7.35;;
76495;SDS011;65329;52.544;4.662;2023-02-28T08:51:15;11.48;;;7.15;;
76495;SDS011;65329;52.544;4.662;2023-02-28T08:53:44;11.63;;;7.55;;
76495;SDS011;65329;52.544;4.662;2023-02-28T08:56:12;12.68;;;8.15;;
76495;SDS011;65329;52.544;4.662;2023-02-28T08:58:40;11.15;;;7.70;;
76495;SDS011;65329;52.544;4.662;2023-02-28T09:01:11;12.07;;;7.68;;
76495;SDS011;65329;52.544;4.662;2023-02-28T09:03:40;11.60;;;6.63;;
76495;SDS011;65329;52.544;4.662;2023-02-28T09:06:08;9.00;;;6.43;;
76495;SDS011;65329;52.544;4.662;2023-02-28T09:08:36;10.82;;;7.20;;
76495;SDS011;65329;52.544;4.662;2023-02-28T09:11:04;14.43;;;9.27;;
76495;SDS011;65329;52.544;4.662;2023-02-28T09:13:31;9.02;;;7.28;;
76495;SDS011;65329;52.544;4.662;2023-02-28T09:15:59;11.43;;;7.93;;
76495;SDS011;65329;52.544;4.662;2023-02-28T09:18:27;8.30;;;6.32;;
76495;SDS011;65329;52.544;4.662;2023-02-28T09:20:55;8.43;;;6.03;;
76495;SDS011;65329;52.544;4.662;2023-02-28T09:23:22;11.45;;;6.28;;
76495;SDS011;65329;52.544;4.662;2023-02-28T09:25:50;9.40;;;6.28;;
76495;SDS011;65329;52.544;4.662;2023-02-28T09:28:20;9.40;;;6.00;;
76495;SDS011;65329;52.544;4.662;2023-02-28T09:30:48;9.40;;;6.40;;
76495;SDS011;65329;52.544;4.662;2023-02-28T09:33:17;12.88;;;7.78;;
76495;SDS011;65329;52.544;4.662;2023-02-28T09:35:47;14.70;;;8.77;;
76495;SDS011;65329;52.544;4.662;2023-02-28T09:38:15;15.65;;;9.10;;
76495;SDS011;65329;52.544;4.662;2023-02-28T09:40:50;11.73;;;7.90;;
76495;SDS011;65329;52.544;4.662;2023-02-28T09:43:20;14.25;;;8.25;;
76495;SDS011;65329;52.544;4.662;2023-02-28T09:45:56;10.80;;;7.63;;
76495;SDS011;65329;52.544;4.662;2023-02-28T09:48:32;14.38;;;9.40;;
76495;SDS011;65329;52.544;4.662;2023-02-28T09:51:11;14.38;;;8.70;;
76495;SDS011;65329;52.544;4.662;2023-02-28T09:53:39;16.05;;;9.55;;
76495;SDS011;65329;52.544;4.662;2023-02-28T09:59:29;13.40;;;7.45;;
76495;SDS011;65329;52.544;4.662;2023-02-28T10:02:19;13.73;;;9.20;;
76495;SDS011;65329;52.544;4.662;2023-02-28T10:04:59;13.20;;;8.70;;
76495;SDS011;65329;52.544;4.662;2023-02-28T10:10:27;10.55;;;6.75;;
76495;SDS011;65329;52.544;4.662;2023-02-28T10:12:59;12.25;;;8.63;;
76495;SDS011;65329;52.544;4.662;2023-02-28T10:15:32;10.57;;;7.40;;
76495;SDS011;65329;52.544;4.662;2023-02-28T10:18:03;10.50;;;7.35;;
76495;SDS011;65329;52.544;4.662;2023-02-28T10:20:35;7.65;;;6.28;;
76495;SDS011;65329;52.544;4.662;2023-02-28T10:25:53;9.60;;;6.28;;
76495;SDS011;65329;52.544;4.662;2023-02-28T10:28:28;9.40;;;5.70;;
76495;SDS011;65329;52.544;4.662;2023-02-28T10:30:57;9.35;;;5.85;;
76495;SDS011;65329;52.544;4.662;2023-02-28T10:33:28;8.48;;;4.93;;
76495;SDS011;65329;52.544;4.662;2023-02-28T10:35:58;9.15;;;5.28;;
76495;SDS011;65329;52.544;4.662;2023-02-28T10:41:09;5.82;;;3.80;;
76495;SDS011;65329;52.544;4.662;2023-02-28T10:43:38;6.38;;;3.83;;
76495;SDS011;65329;52.544;4.662;2023-02-28T10:48:41;6.72;;;3.90;;
76495;SDS011;65329;52.544;4.662;2023-02-28T10:51:15;6.70;;;3.58;;
76495;SDS011;65329;52.544;4.662;2023-02-28T10:56:27;6.35;;;3.90;;
76495;SDS011;65329;52.544;4.662;2023-02-28T10:58:59;4.32;;;3.15;;
76495;SDS011;65329;52.544;4.662;2023-02-28T11:03:58;4.68;;;3.10;;
76495;SDS011;65329;52.544;4.662;2023-02-28T11:06:26;4.85;;;3.55;;
76495;SDS011;65329;52.544;4.662;2023-02-28T11:09:01;6.43;;;3.55;;
76495;SDS011;65329;52.544;4.662;2023-02-28T11:11:44;5.22;;;3.67;;
76495;SDS011;65329;52.544;4.662;2023-02-28T11:14:27;6.80;;;4.07;;
76495;SDS011;65329;52.544;4.662;2023-02-28T11:16:58;5.80;;;3.92;;
76495;SDS011;65329;52.544;4.662;2023-02-28T11:19:39;5.70;;;4.13;;
76495;SDS011;65329;52.544;4.662;2023-02-28T11:22:10;3.78;;;3.28;;
76495;SDS011;65329;52.544;4.662;2023-02-28T11:24:46;6.28;;;4.40;;
76495;SDS011;65329;52.544;4.662;2023-02-28T11:29:53;6.38;;;4.35;;
76495;SDS011;65329;52.544;4.662;2023-02-28T11:32:21;7.78;;;4.63;;
76495;SDS011;65329;52.544;4.662;2023-02-28T11:37:38;5.53;;;3.83;;
76495;SDS011;65329;52.544;4.662;2023-02-28T11:40:08;4.70;;;3.33;;
76495;SDS011;65329;52.544;4.662;2023-02-28T11:45:42;7.05;;;3.65;;
76495;SDS011;65329;52.544;4.662;2023-02-28T11:51:03;6.45;;;3.65;;
76495;SDS011;65329;52.544;4.662;2023-02-28T11:56:33;4.72;;;3.40;;
76495;SDS011;65329;52.544;4.662;2023-02-28T11:59:10;7.15;;;3.63;;
76495;SDS011;65329;52.544;4.662;2023-02-28T12:04:53;5.20;;;3.20;;
76495;SDS011;65329;52.544;4.662;2023-02-28T12:10:31;3.53;;;2.38;;
76495;SDS011;65329;52.544;4.662;2023-02-28T12:13:16;3.83;;;2.38;;
76495;SDS011;65329;52.544;4.662;2023-02-28T12:18:34;5.10;;;2.53;;
76495;SDS011;65329;52.544;4.662;2023-02-28T12:26:43;2.97;;;1.80;;
76495;SDS011;65329;52.544;4.662;2023-02-28T12:32:37;3.22;;;1.60;;
76495;SDS011;65329;52.544;4.662;2023-02-28T12:37:34;3.10;;;1.98;;
76495;SDS011;65329;52.544;4.662;2023-02-28T12:40:50;2.22;;;1.50;;
76495;SDS011;65329;52.544;4.662;2023-02-28T12:43:21;5.60;;;2.00;;
76495;SDS011;65329;52.544;4.662;2023-02-28T12:45:58;2.50;;;1.70;;
76495;SDS011;65329;52.544;4.662;2023-02-28T12:56:45;1.80;;;1.13;;
76495;SDS011;65329;52.544;4.662;2023-02-28T12:59:19;1.50;;;1.00;;
76495;SDS011;65329;52.544;4.662;2023-02-28T13:10:44;1.35;;;1.25;;
76495;SDS011;65329;52.544;4.662;2023-02-28T13:13:18;1.27;;;1.15;;
76495;SDS011;65329;52.544;4.662;2023-02-28T13:16:02;2.33;;;1.33;;
76495;SDS011;65329;52.544;4.662;2023-02-28T13:18:38;1.50;;;1.20;;
76495;SDS011;65329;52.544;4.662;2023-02-28T13:21:26;3.13;;;1.98;;
76495;SDS011;65329;52.544;4.662;2023-02-28T13:23:59;1.95;;;1.25;;
76495;SDS011;65329;52.544;4.662;2023-02-28T13:39:52;2.65;;;1.65;;
76495;SDS011;65329;52.544;4.662;2023-02-28T13:45:36;2.15;;;1.77;;
76495;SDS011;65329;52.544;4.662;2023-02-28T13:47:52;1.92;;;1.30;;
76495;SDS011;65329;52.544;4.662;2023-02-28T13:53:01;2.08;;;1.88;;
76495;SDS011;65329;52.544;4.662;2023-02-28T13:58:54;2.53;;;1.65;;
76495;SDS011;65329;52.544;4.662;2023-02-28T14:05:01;2.65;;;1.73;;
76495;SDS011;65329;52.544;4.662;2023-02-28T14:07:49;2.58;;;1.52;;
76495;SDS011;65329;52.544;4.662;2023-02-28T14:10:30;3.00;;;1.27;;
76495;SDS011;65329;52.544;4.662;2023-02-28T14:16:00;2.55;;;1.73;;
76495;SDS011;65329;52.544;4.662;2023-02-28T14:18:30;2.92;;;1.90;;
76495;SDS011;65329;52.544;4.662;2023-02-28T14:21:31;2.35;;;1.77;;
76495;SDS011;65329;52.544;4.662;2023-02-28T14:30:01;1.60;;;1.23;;
76495;SDS011;65329;52.544;4.662;2023-02-28T14:36:12;2.05;;;1.77;;
76495;SDS011;65329;52.544;4.662;2023-02-28T14:41:39;1.83;;;1.60;;
76495;SDS011;65329;52.544;4.662;2023-02-28T14:44:24;1.15;;;0.90;;
76495;SDS011;65329;52.544;4.662;2023-02-28T14:46:59;2.03;;;1.83;;
76495;SDS011;65329;52.544;4.662;2023-02-28T14:49:43;1.95;;;1.67;;
76495;SDS011;65329;52.544;4.662;2023-02-28T14:52:17;4.97;;;1.45;;
76495;SDS011;65329;52.544;4.662;2023-02-28T14:54:54;2.85;;;2.10;;
76495;SDS011;65329;52.544;4.662;2023-02-28T14:57:29;2.42;;;2.13;;
76495;SDS011;65329;52.544;4.662;2023-02-28T14:59:58;2.72;;;1.83;;
76495;SDS011;65329;52.544;4.662;2023-02-28T15:02:44;2.90;;;2.03;;
76495;SDS011;65329;52.544;4.662;2023-02-28T15:05:19;2.60;;;1.63;;
76495;SDS011;65329;52.544;4.662;2023-02-28T15:08:03;1.38;;;1.17;;
76495;SDS011;65329;52.544;4.662;2023-02-28T15:10:37;3.35;;;1.70;;
76495;SDS011;65329;52.544;4.662;2023-02-28T15:13:07;2.88;;;1.80;;
76495;SDS011;65329;52.544;4.662;2023-02-28T15:21:18;2.55;;;1.38;;
76495;SDS011;65329;52.544;4.662;2023-02-28T15:23:51;3.22;;;2.00;;
76495;SDS011;65329;52.544;4.662;2023-02-28T15:26:24;1.45;;;1.33;;
76495;SDS011;65329;52.544;4.662;2023-02-28T15:29:06;2.13;;;1.90;;
76495;SDS011;65329;52.544;4.662;2023-02-28T15:37:06;2.03;;;1.77;;
76495;SDS011;65329;52.544;4.662;2023-02-28T15:39:55;2.80;;;1.25;;
76495;SDS011;65329;52.544;4.662;2023-02-28T15:42:32;2.05;;;1.85;;
76495;SDS011;65329;52.544;4.662;2023-02-28T15:44:59;2.65;;;1.73;;
76495;SDS011;65329;52.544;4.662;2023-02-28T15:47:27;2.78;;;1.80;;
76495;SDS011;65329;52.544;4.662;2023-02-28T15:50:10;1.33;;;1.00;;
76495;SDS011;65329;52.544;4.662;2023-02-28T15:52:42;2.15;;;1.80;;
76495;SDS011;65329;52.544;4.662;2023-02-28T15:55:21;2.90;;;2.13;;
76495;SDS011;65329;52.544;4.662;2023-02-28T15:57:53;3.35;;;1.63;;
76495;SDS011;65329;52.544;4.662;2023-02-28T16:00:24;2.30;;;1.60;;
76495;SDS011;65329;52.544;4.662;2023-02-28T16:02:54;2.53;;;2.03;;
76495;SDS011;65329;52.544;4.662;2023-02-28T16:05:25;2.17;;;1.50;;
76495;SDS011;65329;52.544;4.662;2023-02-28T16:08:01;1.65;;;1.55;;
76495;SDS011;65329;52.544;4.662;2023-02-28T16:10:40;2.97;;;2.08;;
76495;SDS011;65329;52.544;4.662;2023-02-28T16:13:11;2.45;;;2.03;;
76495;SDS011;65329;52.544;4.662;2023-02-28T16:15:41;3.45;;;2.40;;
76495;SDS011;65329;52.544;4.662;2023-02-28T16:18:12;2.58;;;2.00;;
76495;SDS011;65329;52.544;4.662;2023-02-28T16:20:40;2.25;;;2.05;;
76495;SDS011;65329;52.544;4.662;2023-02-28T16:23:06;4.47;;;2.63;;
76495;SDS011;65329;52.544;4.662;2023-02-28T16:25:43;4.55;;;2.70;;
76495;SDS011;65329;52.544;4.662;2023-02-28T16:28:15;2.85;;;2.10;;
76495;SDS011;65329;52.544;4.662;2023-02-28T16:30:46;4.47;;;2.80;;
76495;SDS011;65329;52.544;4.662;2023-02-28T16:33:14;3.95;;;3.05;;
76495;SDS011;65329;52.544;4.662;2023-02-28T16:35:41;3.35;;;2.72;;
76495;SDS011;65329;52.544;4.662;2023-02-28T16:38:08;2.97;;;2.20;;
76495;SDS011;65329;52.544;4.662;2023-02-28T16:40:36;3.70;;;2.60;;
76495;SDS011;65329;52.544;4.662;2023-02-28T16:43:07;5.75;;;2.35;;
76495;SDS011;65329;52.544;4.662;2023-02-28T16:48:10;3.90;;;3.15;;
76495;SDS011;65329;52.544;4.662;2023-02-28T16:50:40;8.93;;;7.45;;
76495;SDS011;65329;52.544;4.662;2023-02-28T16:53:07;6.20;;;5.47;;
76495;SDS011;65329;52.544;4.662;2023-02-28T16:55:34;3.88;;;3.47;;
76495;SDS011;65329;52.544;4.662;2023-02-28T16:58:06;4.38;;;3.03;;
76495;SDS011;65329;52.544;4.662;2023-02-28T17:00:33;4.45;;;3.33;;
76495;SDS011;65329;52.544;4.662;2023-02-28T17:03:00;4.80;;;3.47;;
76495;SDS011;65329;52.544;4.662;2023-02-28T17:05:37;3.38;;;2.55;;
76495;SDS011;65329;52.544;4.662;2023-02-28T17:08:05;3.90;;;2.72;;
76495;SDS011;65329;52.544;4.662;2023-02-28T17:10:32;4.72;;;2.30;;
76495;SDS011;65329;52.544;4.662;2023-02-28T17:13:00;5.10;;;2.92;;
76495;SDS011;65329;52.544;4.662;2023-02-28T17:15:40;4.72;;;2.70;;
76495;SDS011;65329;52.544;4.662;2023-02-28T17:18:08;2.95;;;2.50;;
76495;SDS011;65329;52.544;4.662;2023-02-28T17:20:41;3.20;;;2.88;;
76495;SDS011;65329;52.544;4.662;2023-02-28T17:23:08;7.78;;;3.15;;
76495;SDS011;65329;52.544;4.662;2023-02-28T17:25:35;3.97;;;2.35;;
76495;SDS011;65329;52.544;4.662;2023-02-28T17:28:04;2.90;;;2.60;;
76495;SDS011;65329;52.544;4.662;2023-02-28T17:30:32;4.10;;;3.10;;
76495;SDS011;65329;52.544;4.662;2023-02-28T17:33:04;4.32;;;3.08;;
76495;SDS011;65329;52.544;4.662;2023-02-28T17:35:31;3.50;;;2.90;;
76495;SDS011;65329;52.544;4.662;2023-02-28T17:37:59;4.05;;;2.70;;
76495;SDS011;65329;52.544;4.662;2023-02-28T17:40:26;4.70;;;3.65;;
76495;SDS011;65329;52.544;4.662;2023-02-28T17:42:53;4.20;;;3.72;;
76495;SDS011;65329;52.544;4.662;2023-02-28T17:45:21;4.57;;;3.90;;
76495;SDS011;65329;52.544;4.662;2023-02-28T17:47:50;5.15;;;4.13;;
76495;SDS011;65329;52.544;4.662;2023-02-28T17:50:18;6.05;;;4.05;;
76495;SDS011;65329;52.544;4.662;2023-02-28T17:52:47;4.47;;;4.03;;
76495;SDS011;65329;52.544;4.662;2023-02-28T17:55:14;6.50;;;4.20;;
76495;SDS011;65329;52.544;4.662;2023-02-28T17:57:42;5.40;;;4.30;;
76495;SDS011;65329;52.544;4.662;2023-02-28T18:00:13;6.82;;;4.63;;
76495;SDS011;65329;52.544;4.662;2023-02-28T18:02:42;5.82;;;4.22;;
76495;SDS011;65329;52.544;4.662;2023-02-28T18:05:12;8.57;;;4.72;;